createdAt,value
2022-10-08T03:02:37.070Z,7.93
2022-10-08T03:05:08.857Z,7.50
2022-10-08T03:10:06.629Z,8.05
2022-10-08T03:12:34.680Z,8.80
2022-10-08T03:15:01.433Z,8.55
2022-10-08T03:17:44.805Z,8.55
2022-10-08T03:20:12.275Z,7.78
2022-10-08T03:22:38.883Z,8.02
2022-10-08T03:25:05.987Z,8.18
2022-10-08T03:27:32.465Z,8.52
2022-10-08T03:29:58.870Z,8.07
2022-10-08T03:32:26.317Z,8.05
2022-10-08T03:34:53.522Z,8.45
2022-10-08T03:37:20.854Z,8.60
2022-10-08T03:39:47.448Z,8.25
2022-10-08T03:42:13.995Z,7.68
2022-10-08T03:44:40.422Z,8.63
2022-10-08T03:47:06.840Z,8.07
2022-10-08T03:49:34.685Z,7.80
2022-10-08T03:52:01.182Z,8.05
2022-10-08T03:54:27.631Z,7.93
2022-10-08T03:56:54.028Z,7.97
2022-10-08T03:59:20.479Z,8.70
2022-10-08T04:01:46.977Z,8.30
2022-10-08T04:04:13.585Z,8.10
2022-10-08T04:06:40.027Z,7.93
2022-10-08T04:09:06.560Z,7.88
2022-10-08T04:11:33.010Z,9.07
2022-10-08T04:14:00.299Z,8.23
2022-10-08T04:16:26.813Z,8.00
2022-10-08T04:18:53.257Z,8.05
2022-10-08T04:21:20.280Z,8.48
2022-10-08T04:23:49.557Z,8.50
2022-10-08T04:26:16.416Z,8.02
2022-10-08T04:28:44.437Z,7.90
2022-10-08T04:31:19.259Z,7.93
2022-10-08T04:33:46.595Z,7.72
2022-10-08T04:36:22.335Z,7.47
2022-10-08T04:38:49.108Z,7.70
2022-10-08T04:41:28.315Z,7.70
2022-10-08T04:43:58.645Z,8.02
2022-10-08T04:46:25.139Z,6.88
2022-10-08T04:48:54.065Z,8.20
2022-10-08T04:51:23.265Z,8.13
2022-10-08T04:53:50.369Z,7.68
2022-10-08T04:56:23.625Z,7.50
2022-10-08T04:58:50.586Z,7.53
2022-10-08T05:01:19.474Z,8.25
2022-10-08T05:03:48.752Z,7.75
2022-10-08T05:06:16.863Z,8.50
2022-10-08T05:08:44.653Z,7.15
2022-10-08T05:11:11.624Z,8.10
2022-10-08T05:13:38.151Z,8.10
2022-10-08T05:16:10.285Z,8.38
2022-10-08T05:18:38.071Z,7.88
2022-10-08T05:21:06.641Z,8.40
2022-10-08T05:23:33.890Z,8.00
2022-10-08T05:26:02.345Z,8.23
2022-10-08T05:28:29.876Z,8.77
2022-10-08T05:31:00.998Z,7.97
2022-10-08T05:33:27.492Z,8.13
2022-10-08T05:35:54.070Z,7.32
2022-10-08T05:38:20.662Z,8.57
2022-10-08T05:40:47.233Z,7.65
2022-10-08T05:43:13.897Z,7.43
2022-10-08T05:45:40.316Z,7.43
2022-10-08T05:48:06.778Z,7.07
2022-10-08T05:50:36.422Z,6.80
2022-10-08T05:53:05.380Z,8.02
2022-10-08T05:55:35.150Z,7.25
2022-10-08T05:58:01.639Z,7.05
2022-10-08T06:00:28.241Z,7.80
2022-10-08T06:02:54.711Z,7.10
2022-10-08T06:05:21.975Z,7.82
2022-10-08T06:07:48.541Z,7.18
2022-10-08T06:10:15.041Z,7.00
2022-10-08T06:12:41.455Z,8.85
2022-10-08T06:15:08.133Z,7.40
2022-10-08T06:17:34.650Z,7.85
2022-10-08T06:20:01.118Z,6.22
2022-10-08T06:22:27.509Z,8.48
2022-10-08T06:24:54.110Z,8.15
2022-10-08T06:27:20.540Z,8.48
2022-10-08T06:29:46.951Z,8.35
2022-10-08T06:32:13.411Z,7.68
2022-10-08T06:34:41.964Z,8.30
2022-10-08T06:37:08.471Z,7.50
2022-10-08T06:39:34.950Z,8.38
2022-10-08T06:42:01.495Z,7.43
2022-10-08T06:44:27.928Z,7.60
2022-10-08T06:46:54.423Z,7.63
2022-10-08T06:49:22.142Z,8.60
2022-10-08T06:51:48.604Z,8.75
2022-10-08T06:54:15.427Z,8.13
2022-10-08T06:56:41.887Z,9.40
2022-10-08T06:59:08.470Z,8.43
2022-10-08T07:01:36.074Z,8.77
2022-10-08T07:04:04.347Z,9.73
2022-10-08T07:06:31.343Z,7.70
2022-10-08T07:09:00.158Z,7.45
2022-10-08T07:11:27.421Z,8.70
2022-10-08T07:13:55.141Z,7.32
2022-10-08T07:16:24.212Z,7.18
2022-10-08T07:18:52.561Z,7.22
2022-10-08T07:21:20.715Z,7.25
2022-10-08T07:23:47.278Z,6.80
2022-10-08T07:26:16.198Z,7.57
2022-10-08T07:29:04.563Z,7.40
2022-10-08T07:31:33.822Z,6.75
2022-10-08T07:34:01.855Z,6.47
2022-10-08T07:36:29.278Z,6.93
2022-10-08T07:38:57.935Z,6.53
2022-10-08T07:41:25.045Z,6.13
2022-10-08T07:43:53.117Z,5.10
2022-10-08T07:46:20.258Z,5.15
2022-10-08T07:48:46.948Z,5.32
2022-10-08T07:51:19.451Z,5.10
2022-10-08T07:53:46.582Z,4.35
2022-10-08T07:56:15.735Z,5.07
2022-10-08T07:58:42.265Z,5.07
2022-10-08T08:01:14.023Z,4.50
2022-10-08T08:03:40.625Z,4.32
2022-10-08T08:06:10.884Z,4.38
2022-10-08T08:08:39.260Z,4.50
2022-10-08T08:11:07.493Z,4.40
2022-10-08T08:13:37.454Z,4.32
2022-10-08T08:16:07.304Z,4.30
2022-10-08T08:18:36.682Z,4.20
2022-10-08T08:21:09.839Z,3.53
2022-10-08T08:23:39.645Z,3.80
2022-10-08T08:26:10.071Z,3.33
2022-10-08T08:28:37.019Z,3.42
2022-10-08T08:31:17.939Z,3.75
2022-10-08T08:33:50.832Z,3.03
2022-10-08T08:36:19.068Z,3.60
2022-10-08T08:38:46.445Z,3.90
2022-10-08T08:41:22.143Z,3.13
2022-10-08T08:43:48.925Z,3.05
2022-10-08T08:46:20.991Z,3.53
2022-10-08T08:48:48.206Z,4.25
2022-10-08T08:51:16.446Z,3.05
2022-10-08T08:53:43.130Z,2.92
2022-10-08T08:56:15.799Z,4.28
2022-10-08T08:58:49.816Z,3.30
2022-10-08T09:01:19.588Z,3.75
2022-10-08T09:03:51.007Z,3.63
2022-10-08T09:06:22.689Z,3.65
2022-10-08T09:09:04.232Z,3.08
2022-10-08T09:11:30.794Z,3.22
2022-10-08T09:14:27.029Z,3.63
2022-10-08T09:16:56.057Z,3.58
2022-10-08T09:19:22.733Z,3.60
2022-10-08T09:21:49.191Z,3.42
2022-10-08T09:24:16.744Z,3.78
2022-10-08T09:26:43.479Z,3.92
2022-10-08T09:29:31.277Z,4.05
2022-10-08T09:31:57.889Z,3.47
2022-10-08T09:34:24.451Z,4.15
2022-10-08T09:37:03.422Z,4.18
2022-10-08T09:39:32.711Z,3.90
2022-10-08T09:42:19.481Z,3.63
2022-10-08T09:44:59.047Z,3.35
2022-10-08T09:47:27.088Z,3.17
2022-10-08T09:50:15.883Z,3.42
2022-10-08T09:52:43.031Z,3.38
2022-10-08T09:55:31.404Z,3.33
2022-10-08T09:58:04.050Z,3.60
2022-10-08T10:00:35.517Z,3.20
2022-10-08T10:03:04.917Z,3.55
2022-10-08T10:05:36.025Z,3.40
2022-10-08T10:08:02.910Z,3.72
2022-10-08T10:10:34.556Z,3.65
2022-10-08T10:16:14.371Z,3.47
2022-10-08T10:18:55.930Z,3.85
2022-10-08T10:21:40.425Z,4.40
2022-10-08T10:24:15.427Z,3.90
2022-10-08T10:26:44.171Z,3.38
2022-10-08T10:29:17.993Z,3.70
2022-10-08T10:31:50.928Z,3.65
2022-10-08T10:34:30.568Z,4.30
2022-10-08T10:37:01.990Z,3.50
2022-10-08T10:39:33.752Z,3.83
2022-10-08T10:42:21.295Z,4.35
2022-10-08T10:44:56.177Z,3.47
2022-10-08T10:47:29.617Z,4.40
2022-10-08T10:50:00.302Z,4.40
2022-10-08T10:52:39.558Z,3.88
2022-10-08T10:55:27.936Z,3.47
2022-10-08T10:58:00.523Z,4.07
2022-10-08T11:00:48.025Z,3.33
2022-10-08T11:03:38.442Z,4.05
2022-10-08T11:06:26.245Z,3.10
2022-10-08T11:09:19.235Z,3.10
2022-10-08T11:11:52.381Z,3.95
2022-10-08T11:14:42.590Z,3.63
2022-10-08T11:17:31.948Z,3.50
2022-10-08T11:20:11.112Z,4.05
2022-10-08T11:23:00.465Z,3.75
2022-10-08T11:29:00.171Z,3.97
2022-10-08T11:31:45.266Z,3.97
2022-10-08T11:34:29.390Z,3.88
2022-10-08T11:37:13.811Z,4.95
2022-10-08T11:40:03.308Z,5.40
2022-10-08T11:42:45.025Z,5.45
2022-10-08T11:45:24.032Z,5.47
2022-10-08T11:47:54.390Z,6.03
2022-10-08T11:50:28.673Z,5.28
2022-10-08T11:53:09.707Z,5.82
2022-10-08T11:55:37.738Z,6.10
2022-10-08T11:58:08.814Z,6.20
2022-10-08T12:00:46.614Z,7.15
2022-10-08T12:03:33.920Z,6.32
2022-10-08T12:06:25.252Z,7.07
2022-10-08T12:08:54.673Z,5.68
2022-10-08T12:11:30.019Z,5.68
2022-10-08T12:14:11.803Z,5.78
2022-10-08T12:19:32.469Z,6.35
2022-10-08T12:22:02.342Z,5.30
2022-10-08T12:24:38.194Z,5.70
2022-10-08T12:27:16.865Z,4.88
2022-10-08T12:29:56.883Z,4.93
2022-10-08T12:32:29.351Z,4.47
2022-10-08T12:34:56.514Z,4.55
2022-10-08T12:37:31.980Z,3.95
2022-10-08T12:40:09.353Z,4.60
2022-10-08T12:42:38.368Z,4.22
2022-10-08T12:45:17.633Z,4.53
2022-10-08T12:48:19.404Z,4.28
2022-10-08T12:51:03.390Z,4.22
2022-10-08T12:53:30.279Z,3.58
2022-10-08T12:55:58.431Z,3.72
2022-10-08T12:58:29.115Z,3.95
2022-10-08T13:00:59.768Z,3.40
2022-10-08T13:03:26.356Z,3.40
2022-10-08T13:05:55.229Z,4.20
2022-10-08T13:08:29.562Z,2.88
2022-10-08T13:10:57.986Z,3.25
2022-10-08T13:13:44.844Z,3.53
2022-10-08T13:16:15.549Z,4.55
2022-10-08T13:18:45.664Z,3.50
2022-10-08T13:21:24.013Z,3.30
2022-10-08T13:23:51.308Z,3.13
2022-10-08T13:26:37.735Z,3.28
2022-10-08T13:29:22.327Z,2.60
2022-10-08T13:31:56.178Z,7.07
2022-10-08T13:34:24.822Z,2.90
2022-10-08T13:36:57.349Z,3.72
2022-10-08T13:39:49.616Z,2.67
2022-10-08T13:42:18.572Z,2.35
2022-10-08T13:44:45.621Z,2.53
2022-10-08T13:47:18.050Z,2.22
2022-10-08T13:49:44.788Z,2.42
2022-10-08T13:52:21.471Z,3.10
2022-10-08T13:54:49.650Z,2.70
2022-10-08T13:57:16.187Z,2.35
2022-10-08T13:59:42.966Z,3.55
2022-10-08T14:02:13.943Z,2.45
2022-10-08T14:04:40.505Z,3.08
2022-10-08T14:07:20.085Z,2.47
2022-10-08T14:09:46.554Z,2.30
2022-10-08T14:12:12.979Z,2.95
2022-10-08T14:14:39.430Z,2.00
2022-10-08T14:17:06.035Z,3.50
2022-10-08T14:19:32.469Z,4.65
2022-10-08T14:21:59.427Z,3.95
2022-10-08T14:24:25.953Z,3.03
2022-10-08T14:26:52.738Z,2.00
2022-10-08T14:29:19.182Z,3.38
2022-10-08T14:31:45.738Z,3.22
2022-10-08T14:34:12.308Z,3.28
2022-10-08T14:36:41.755Z,2.40
2022-10-08T14:39:09.854Z,2.75
2022-10-08T14:41:36.704Z,2.38
2022-10-08T14:44:03.191Z,1.48
2022-10-08T14:46:29.644Z,1.70
2022-10-08T14:48:56.198Z,1.38
2022-10-08T14:51:22.671Z,2.25
2022-10-08T14:53:50.222Z,1.77
2022-10-08T14:56:16.778Z,3.72
2022-10-08T14:58:43.268Z,2.88
2022-10-08T15:01:10.200Z,1.80
2022-10-08T15:03:36.756Z,2.05
2022-10-08T15:06:03.368Z,1.85
2022-10-08T15:08:29.960Z,1.67
2022-10-08T15:10:56.397Z,1.55
2022-10-08T15:13:22.967Z,1.98
2022-10-08T15:15:49.388Z,1.70
2022-10-08T15:18:15.870Z,1.60
2022-10-08T15:20:43.043Z,2.05
2022-10-08T15:23:10.450Z,2.45
2022-10-08T15:25:37.411Z,1.80
2022-10-08T15:28:04.281Z,1.88
2022-10-08T15:30:30.909Z,1.63
2022-10-08T15:33:03.004Z,2.00
2022-10-08T15:35:33.364Z,2.03
2022-10-08T15:37:59.899Z,1.45
2022-10-08T15:40:28.623Z,1.63
2022-10-08T15:42:55.054Z,1.40
2022-10-08T15:45:21.628Z,1.27
2022-10-08T15:47:51.070Z,1.20
2022-10-08T15:50:17.540Z,1.42
2022-10-08T15:52:46.351Z,1.02
2022-10-08T15:55:13.255Z,1.10
2022-10-08T15:57:39.779Z,1.08
2022-10-08T16:00:06.829Z,1.20
2022-10-08T16:02:33.401Z,1.50
2022-10-08T16:04:59.979Z,0.80
2022-10-08T16:07:26.395Z,1.15
2022-10-08T16:09:52.855Z,1.85
2022-10-08T16:12:19.288Z,1.42
2022-10-08T16:14:45.712Z,1.10
2022-10-08T16:17:12.170Z,1.40
2022-10-08T16:19:38.689Z,1.20
2022-10-08T16:22:05.517Z,1.30
2022-10-08T16:24:32.027Z,1.63
2022-10-08T16:26:58.479Z,2.80
2022-10-08T16:29:24.906Z,1.50
2022-10-08T16:31:51.473Z,1.50
2022-10-08T16:34:20.675Z,1.65
2022-10-08T16:36:51.146Z,1.25
2022-10-08T16:39:20.791Z,1.27
2022-10-08T16:41:48.157Z,1.42
2022-10-08T16:44:16.851Z,1.73
2022-10-08T16:46:48.341Z,1.05
2022-10-08T16:49:25.027Z,1.63
2022-10-08T16:51:58.722Z,1.20
2022-10-08T16:54:25.740Z,1.60
2022-10-08T16:56:52.160Z,1.50
2022-10-08T16:59:21.383Z,1.70
2022-10-08T17:01:50.643Z,1.27
2022-10-08T17:04:18.239Z,1.65
2022-10-08T17:06:44.849Z,1.20
2022-10-08T17:09:14.527Z,1.33
2022-10-08T17:11:41.907Z,1.33
2022-10-08T17:14:10.270Z,1.25
2022-10-08T17:16:37.326Z,2.97
2022-10-08T17:19:04.314Z,1.92
2022-10-08T17:21:33.030Z,1.30
2022-10-08T17:24:01.740Z,1.10
2022-10-08T17:26:29.559Z,2.28
2022-10-08T17:28:56.055Z,1.65
2022-10-08T17:31:29.299Z,1.98
2022-10-08T17:33:55.809Z,1.48
2022-10-08T17:36:25.317Z,1.35
2022-10-08T17:38:53.377Z,1.83
2022-10-08T17:41:25.108Z,1.65
2022-10-08T17:43:52.965Z,1.40
2022-10-08T17:46:23.495Z,1.27
2022-10-08T17:48:50.791Z,1.27
2022-10-08T17:51:20.215Z,1.95
2022-10-08T17:54:01.606Z,1.52
2022-10-08T17:56:28.848Z,1.60
2022-10-08T17:58:56.144Z,1.40
2022-10-08T18:01:31.959Z,2.55
2022-10-08T18:04:01.204Z,1.42
2022-10-08T18:06:29.052Z,1.88
2022-10-08T18:08:57.093Z,1.77
2022-10-08T18:11:24.368Z,2.15
2022-10-08T18:13:51.122Z,1.83
2022-10-08T18:16:19.077Z,1.55
2022-10-08T18:18:46.858Z,1.90
2022-10-08T18:21:16.566Z,2.25
2022-10-08T18:23:43.566Z,2.75
2022-10-08T18:26:34.828Z,2.55
2022-10-08T18:29:04.440Z,2.40
2022-10-08T18:31:32.972Z,2.05
2022-10-08T18:34:08.647Z,2.15
2022-10-08T18:36:37.159Z,1.92
2022-10-08T18:39:06.978Z,1.83
2022-10-08T18:41:38.030Z,1.88
2022-10-08T18:44:06.310Z,2.00
2022-10-08T18:46:36.857Z,2.63
2022-10-08T18:49:04.721Z,2.17
2022-10-08T18:51:31.725Z,2.45
2022-10-08T18:53:59.289Z,3.20
2022-10-08T18:56:31.220Z,2.72
2022-10-08T18:59:03.858Z,2.00
2022-10-08T19:01:41.174Z,3.65
2022-10-08T19:04:11.883Z,2.85
2022-10-08T19:06:39.931Z,2.40
2022-10-08T19:09:07.053Z,3.40
2022-10-08T19:11:44.644Z,2.45
2022-10-08T19:14:13.639Z,2.80
2022-10-08T19:16:41.252Z,2.20
2022-10-08T19:19:14.685Z,2.50
2022-10-08T19:21:41.849Z,2.55
2022-10-08T19:24:12.382Z,3.13
2022-10-08T19:26:38.792Z,3.22
2022-10-08T19:29:05.327Z,2.10
2022-10-08T19:31:34.021Z,2.10
2022-10-08T19:34:05.908Z,2.13
2022-10-08T19:36:37.504Z,2.30
2022-10-08T19:39:06.217Z,2.92
2022-10-08T19:41:32.918Z,3.03
2022-10-08T19:43:59.653Z,2.50
2022-10-08T19:46:27.334Z,2.65
2022-10-08T19:48:59.691Z,2.40
2022-10-08T19:51:28.126Z,2.00
2022-10-08T19:53:55.450Z,1.98
2022-10-08T19:56:22.535Z,1.98
2022-10-08T19:58:53.051Z,2.13
2022-10-08T20:01:22.021Z,2.83
2022-10-08T20:03:49.236Z,2.22
2022-10-08T20:06:23.241Z,2.00
2022-10-08T20:08:54.155Z,2.30
2022-10-08T20:11:21.173Z,2.75
2022-10-08T20:13:49.189Z,1.80
2022-10-08T20:16:24.250Z,2.83
2022-10-08T20:19:01.421Z,2.20
2022-10-08T20:21:30.266Z,2.10
2022-10-08T20:23:57.215Z,3.05
2022-10-08T20:26:35.354Z,2.58
2022-10-08T20:29:16.975Z,8.75
2022-10-08T20:31:46.621Z,2.50
2022-10-08T20:34:17.595Z,2.40
2022-10-08T20:36:48.276Z,2.42
2022-10-08T20:39:16.799Z,2.72
2022-10-08T20:41:43.614Z,3.13
2022-10-08T20:44:10.336Z,2.13
2022-10-08T20:46:37.657Z,2.63
2022-10-08T20:49:04.965Z,2.25
2022-10-08T20:51:32.853Z,1.92
2022-10-08T20:54:05.428Z,2.30
2022-10-08T20:56:38.443Z,2.50
2022-10-08T20:59:05.426Z,2.90
2022-10-08T21:01:35.465Z,2.92
2022-10-08T21:04:02.305Z,3.45
2022-10-08T21:06:36.146Z,2.60
2022-10-08T21:09:02.746Z,3.22
2022-10-08T21:11:30.263Z,2.75
2022-10-08T21:13:59.475Z,1.63
2022-10-08T21:16:28.301Z,2.13
2022-10-08T21:18:59.901Z,2.03
2022-10-08T21:21:27.709Z,2.20
2022-10-08T21:23:54.139Z,2.13
2022-10-08T21:26:24.001Z,1.98
2022-10-08T21:28:53.209Z,2.63
2022-10-08T21:31:20.905Z,2.08
2022-10-08T21:33:49.250Z,2.80
2022-10-08T21:36:29.451Z,2.00
2022-10-08T21:38:56.570Z,2.05
2022-10-08T21:41:25.005Z,2.63
2022-10-08T21:43:54.145Z,2.08
2022-10-08T21:46:22.866Z,3.05
2022-10-08T21:49:08.182Z,2.08
2022-10-08T21:51:35.396Z,2.13
2022-10-08T21:54:03.563Z,2.15
2022-10-08T21:56:32.183Z,2.80
2022-10-08T21:59:00.467Z,8.52
